createdAt,value
2022-09-28T00:01:15.626Z,80.56
2022-09-28T00:03:48.068Z,80.36
2022-09-28T00:06:22.371Z,80.55
2022-09-28T00:08:54.393Z,80.39
2022-09-28T00:11:29.176Z,80.23
2022-09-28T00:14:03.667Z,80.46
2022-09-28T00:16:37.596Z,80.51
2022-09-28T00:19:09.276Z,80.49
2022-09-28T00:21:43.099Z,80.53
2022-09-28T00:24:19.051Z,80.51
2022-09-28T00:26:52.784Z,80.33
2022-09-28T00:29:27.262Z,80.22
2022-09-28T00:32:02.926Z,79.96
2022-09-28T00:34:37.043Z,79.70
2022-09-28T00:37:09.806Z,79.45
2022-09-28T00:39:43.415Z,79.34
2022-09-28T00:42:18.038Z,79.07
2022-09-28T00:44:53.866Z,78.95
2022-09-28T00:47:38.354Z,79.31
2022-09-28T00:50:15.585Z,79.44
2022-09-28T00:52:49.922Z,79.50
2022-09-28T00:55:26.271Z,79.57
2022-09-28T00:58:02.310Z,79.66
2022-09-28T01:00:34.129Z,79.40
2022-09-28T01:03:06.493Z,79.56
2022-09-28T01:05:40.188Z,79.87
2022-09-28T01:08:13.334Z,80.16
2022-09-28T01:10:44.889Z,80.26
2022-09-28T01:13:18.634Z,80.53
2022-09-28T01:15:58.901Z,80.59
2022-09-28T01:18:41.191Z,80.68
2022-09-28T01:21:17.637Z,80.54
2022-09-28T01:24:22.728Z,80.70
2022-09-28T01:27:06.578Z,80.51
2022-09-28T01:29:47.632Z,80.72
2022-09-28T01:32:33.482Z,80.97
2022-09-28T01:35:09.884Z,81.18
2022-09-28T01:37:52.960Z,81.32
2022-09-28T01:40:27.210Z,81.23
2022-09-28T01:43:04.050Z,81.23
2022-09-28T01:45:42.500Z,81.41
2022-09-28T01:48:18.584Z,81.54
2022-09-28T01:50:55.937Z,81.29
2022-09-28T01:53:33.105Z,81.44
2022-09-28T01:56:14.345Z,81.46
2022-09-28T01:58:50.579Z,81.37
2022-09-28T02:01:28.366Z,81.13
2022-09-28T02:04:07.192Z,81.29
2022-09-28T02:06:42.940Z,81.43
2022-09-28T02:09:20.117Z,81.30
2022-09-28T02:11:57.499Z,81.28
2022-09-28T02:14:30.563Z,81.21
2022-09-28T02:17:02.383Z,81.22
2022-09-28T02:19:36.485Z,81.39
2022-09-28T02:22:16.966Z,81.33
2022-09-28T02:24:54.744Z,81.21
2022-09-28T02:27:36.127Z,81.54
2022-09-28T02:30:10.039Z,81.69
2022-09-28T02:32:47.082Z,81.60
2022-09-28T02:35:20.649Z,81.62
2022-09-28T02:37:52.355Z,81.45
2022-09-28T02:40:29.366Z,81.61
2022-09-28T02:43:09.601Z,81.72
2022-09-28T02:45:52.066Z,81.59
2022-09-28T02:48:43.956Z,81.58
2022-09-28T02:51:27.644Z,81.33
2022-09-28T02:54:28.179Z,81.37
2022-09-28T02:57:11.320Z,81.25
2022-09-28T03:00:03.015Z,81.39
2022-09-28T03:02:41.940Z,81.52
2022-09-28T03:05:23.612Z,81.48
2022-09-28T03:08:00.211Z,81.56
2022-09-28T03:10:39.322Z,81.48
2022-09-28T03:13:12.651Z,81.52
2022-09-28T03:15:48.502Z,81.40
2022-09-28T03:18:20.521Z,81.34
2022-09-28T03:20:50.602Z,81.17
2022-09-28T03:23:25.608Z,80.68
2022-09-28T03:25:57.378Z,80.86
2022-09-28T03:28:28.202Z,80.88
2022-09-28T03:30:59.820Z,80.82
2022-09-28T03:33:29.949Z,80.95
2022-09-28T03:36:01.518Z,81.33
2022-09-28T03:38:33.681Z,81.13
2022-09-28T03:41:05.756Z,81.21
2022-09-28T03:43:39.487Z,81.62
2022-09-28T03:46:09.605Z,81.83
2022-09-28T03:48:45.330Z,82.11
2022-09-28T03:51:15.330Z,82.31
2022-09-28T03:53:46.788Z,82.56
2022-09-28T03:56:17.472Z,82.62
2022-09-28T03:58:48.921Z,82.83
2022-09-28T04:01:19.063Z,82.69
2022-09-28T04:03:56.139Z,82.80
2022-09-28T04:06:28.752Z,82.71
2022-09-28T04:09:00.941Z,82.77
2022-09-28T04:11:47.651Z,82.65
2022-09-28T04:14:25.213Z,82.62
2022-09-28T04:16:57.544Z,82.82
2022-09-28T04:19:30.988Z,82.83
2022-09-28T04:22:21.301Z,82.92
2022-09-28T04:24:52.782Z,82.92
2022-09-28T04:27:42.059Z,82.97
2022-09-28T04:30:15.696Z,82.76
2022-09-28T04:32:50.157Z,82.81
2022-09-28T04:35:22.331Z,82.85
2022-09-28T04:37:53.988Z,82.86
2022-09-28T04:40:24.135Z,82.80
2022-09-28T04:42:59.029Z,82.83
2022-09-28T04:45:30.710Z,82.58
2022-09-28T04:48:09.924Z,82.66
2022-09-28T04:51:01.397Z,82.96
2022-09-28T04:53:32.904Z,82.78
2022-09-28T04:56:06.300Z,82.61
2022-09-28T04:58:38.644Z,82.43
2022-09-28T05:01:14.739Z,82.73
2022-09-28T05:04:04.631Z,82.77
2022-09-28T05:06:42.831Z,82.56
2022-09-28T05:09:12.805Z,82.60
2022-09-28T05:11:44.276Z,82.85
2022-09-28T05:14:21.907Z,82.81
2022-09-28T05:16:53.457Z,82.96
2022-09-28T05:19:31.368Z,82.88
2022-09-28T05:22:11.334Z,82.83
2022-09-28T05:24:46.472Z,82.84
2022-09-28T05:27:19.780Z,82.67
2022-09-28T05:29:59.649Z,82.55
2022-09-28T05:33:06.854Z,82.45
2022-09-28T05:35:55.146Z,82.93
2022-09-28T05:38:29.156Z,83.29
2022-09-28T05:41:05.736Z,83.38
2022-09-28T05:43:38.443Z,83.87
2022-09-28T05:46:10.202Z,85.88
2022-09-28T05:48:44.647Z,84.72
2022-09-28T05:51:14.655Z,82.99
2022-09-28T05:53:46.175Z,84.07
2022-09-28T05:56:22.206Z,82.73
2022-09-28T05:58:54.862Z,78.75
2022-09-28T06:01:27.879Z,77.08
2022-09-28T06:04:01.621Z,75.71
2022-09-28T06:06:33.078Z,73.88
2022-09-28T06:09:05.400Z,73.36
2022-09-28T06:11:49.374Z,73.42
2022-09-28T06:14:29.869Z,73.14
2022-09-28T06:16:59.929Z,73.40
2022-09-28T06:19:31.444Z,73.86
2022-09-28T06:22:29.466Z,74.57
2022-09-28T06:25:10.381Z,74.91
2022-09-28T06:27:43.361Z,74.75
2022-09-28T06:30:17.160Z,74.11
2022-09-28T06:32:49.842Z,73.77
2022-09-28T06:35:21.850Z,74.00
2022-09-28T06:37:53.817Z,74.12
2022-09-28T06:40:26.511Z,74.20
2022-09-28T06:42:59.738Z,74.20
2022-09-28T06:45:55.719Z,74.62
2022-09-28T06:48:47.205Z,75.03
2022-09-28T06:51:24.993Z,75.51
2022-09-28T06:54:06.163Z,75.85
2022-09-28T06:56:58.078Z,75.75
2022-09-28T06:59:29.863Z,75.77
2022-09-28T07:02:02.491Z,75.74
2022-09-28T07:04:52.692Z,75.94
2022-09-28T07:08:03.777Z,76.07
2022-09-28T07:11:06.354Z,75.62
2022-09-28T07:13:57.628Z,75.97
2022-09-28T07:16:46.131Z,76.20
2022-09-28T07:19:19.988Z,76.70
2022-09-28T07:22:01.968Z,76.30
2022-09-28T07:24:36.888Z,76.06
2022-09-28T07:27:38.244Z,75.97
2022-09-28T07:30:35.883Z,76.03
2022-09-28T07:33:34.034Z,75.60
2022-09-28T07:36:25.924Z,75.92
2022-09-28T07:38:57.975Z,75.79
2022-09-28T07:41:33.805Z,75.68
2022-09-28T07:44:07.872Z,74.90
2022-09-28T07:46:41.041Z,74.97
2022-09-28T07:49:19.655Z,75.06
2022-09-28T07:52:10.732Z,74.81
2022-09-28T07:55:06.663Z,74.83
2022-09-28T07:58:01.714Z,74.95
2022-09-28T08:00:52.961Z,75.10
2022-09-28T08:03:24.457Z,75.48
2022-09-28T08:06:01.176Z,75.51
2022-09-28T08:08:34.328Z,75.27
2022-09-28T08:11:10.239Z,74.84
2022-09-28T08:14:00.667Z,74.12
2022-09-28T08:16:53.191Z,74.03
2022-09-28T08:19:56.802Z,73.72
2022-09-28T08:22:30.294Z,73.46
2022-09-28T08:25:01.852Z,73.32
2022-09-28T08:27:34.010Z,72.92
2022-09-28T08:30:09.181Z,72.69
2022-09-28T08:32:56.693Z,72.93
2022-09-28T08:35:47.005Z,72.77
2022-09-28T08:38:37.154Z,73.59
2022-09-28T08:41:36.889Z,73.63
2022-09-28T08:44:24.006Z,73.56
2022-09-28T08:47:42.910Z,73.71
2022-09-28T08:50:53.156Z,74.08
2022-09-28T08:53:45.710Z,73.97
2022-09-28T08:56:25.274Z,74.06
2022-09-28T08:59:01.074Z,74.22
2022-09-28T09:01:38.202Z,74.24
2022-09-28T09:04:13.585Z,74.72
2022-09-28T09:07:19.612Z,74.69
2022-09-28T09:10:20.679Z,74.15
2022-09-28T09:13:01.255Z,74.18
2022-09-28T09:15:48.546Z,74.30
2022-09-28T09:18:44.093Z,74.34
2022-09-28T09:21:42.351Z,74.21
2022-09-28T09:24:27.054Z,73.94
2022-09-28T09:27:15.470Z,73.52
2022-09-28T09:30:01.424Z,73.62
2022-09-28T09:32:54.219Z,73.24
2022-09-28T09:35:41.925Z,72.89
2022-09-28T09:39:06.083Z,72.59
2022-09-28T09:42:12.131Z,72.54
2022-09-28T09:45:26.245Z,72.31
2022-09-28T09:48:16.303Z,71.88
2022-09-28T09:50:52.265Z,71.47
2022-09-28T09:53:29.909Z,70.66
2022-09-28T09:56:07.441Z,70.22
2022-09-28T09:58:49.945Z,70.04
2022-09-28T10:01:34.384Z,69.43
2022-09-28T10:04:36.126Z,69.42
2022-09-28T10:07:21.745Z,69.71
2022-09-28T10:09:58.239Z,69.25
2022-09-28T10:12:43.867Z,68.94
2022-09-28T10:15:20.136Z,69.05
2022-09-28T10:18:03.019Z,67.95
2022-09-28T10:20:54.167Z,66.28
2022-09-28T10:23:38.989Z,65.52
2022-09-28T10:26:16.071Z,63.51
2022-09-28T10:28:53.130Z,63.75
2022-09-28T10:31:43.020Z,64.13
2022-09-28T10:34:30.843Z,63.53
2022-09-28T10:37:12.468Z,63.23
2022-09-28T10:40:21.742Z,63.41
2022-09-28T10:43:00.425Z,64.17
2022-09-28T10:45:36.116Z,64.09
2022-09-28T10:48:16.858Z,64.46
2022-09-28T10:51:00.139Z,63.01
2022-09-28T10:53:31.831Z,62.22
2022-09-28T10:56:25.261Z,61.69
2022-09-28T10:59:23.357Z,61.47
2022-09-28T11:02:00.873Z,60.79
2022-09-28T11:04:44.412Z,60.60
2022-09-28T11:07:22.556Z,60.65
2022-09-28T11:09:56.446Z,60.17
2022-09-28T11:12:32.422Z,59.75
2022-09-28T11:15:07.348Z,60.34
2022-09-28T11:17:42.005Z,60.86
2022-09-28T11:20:35.514Z,60.76
2022-09-28T11:23:27.498Z,60.10
2022-09-28T11:26:03.991Z,59.92
2022-09-28T11:28:37.507Z,59.47
2022-09-28T11:31:14.935Z,59.67
2022-09-28T11:34:15.890Z,59.01
2022-09-28T11:37:27.526Z,59.19
2022-09-28T11:40:12.421Z,58.82
2022-09-28T11:42:54.300Z,58.01
2022-09-28T11:45:38.719Z,58.29
2022-09-28T11:48:15.585Z,59.08
2022-09-28T11:50:53.105Z,58.91
2022-09-28T11:53:46.065Z,59.06
2022-09-28T11:56:26.952Z,58.79
2022-09-28T11:59:02.511Z,59.40
2022-09-28T12:01:48.316Z,59.37
2022-09-28T12:04:32.933Z,59.35
2022-09-28T12:07:15.964Z,59.15
2022-09-28T12:09:55.481Z,58.94
2022-09-28T12:12:33.407Z,58.81
2022-09-28T12:15:18.883Z,58.13
2022-09-28T12:18:00.260Z,57.83
2022-09-28T12:20:35.104Z,57.92
2022-09-28T12:23:14.451Z,57.87
2022-09-28T12:25:49.172Z,57.64
2022-09-28T12:28:27.813Z,57.96
2022-09-28T12:31:02.028Z,58.29
2022-09-28T12:33:54.886Z,57.91
2022-09-28T12:39:57.681Z,58.18
2022-09-28T12:42:53.000Z,58.00
2022-09-28T12:45:59.731Z,57.67
2022-09-28T12:49:33.175Z,57.58
2022-09-28T12:51:52.782Z,56.05
2022-09-28T12:54:54.181Z,56.03
2022-09-28T12:58:01.762Z,55.69
2022-09-28T13:00:48.706Z,56.42
2022-09-28T13:03:41.209Z,56.27
2022-09-28T13:06:37.493Z,56.34
2022-09-28T13:09:24.580Z,56.80
2022-09-28T13:12:06.144Z,56.88
2022-09-28T13:14:58.956Z,57.35
2022-09-28T13:17:44.629Z,57.55
2022-09-28T13:20:30.129Z,57.45
2022-09-28T13:23:12.483Z,57.41
2022-09-28T13:25:48.796Z,57.99
2022-09-28T13:28:27.027Z,57.64
2022-09-28T13:31:02.189Z,57.72
2022-09-28T13:33:37.059Z,56.81
2022-09-28T13:36:47.994Z,57.23
2022-09-28T13:39:46.426Z,57.77
2022-09-28T13:42:44.230Z,57.43
2022-09-28T13:45:39.093Z,58.12
2022-09-28T13:48:17.725Z,58.79
2022-09-28T13:51:11.026Z,58.43
2022-09-28T13:53:59.027Z,58.78
2022-09-28T13:56:38.135Z,59.12
2022-09-28T13:59:20.798Z,59.54
2022-09-28T14:02:05.682Z,59.74
2022-09-28T14:05:01.055Z,60.80
2022-09-28T14:07:59.683Z,61.24
2022-09-28T14:10:49.785Z,61.54
2022-09-28T14:13:56.222Z,61.01
2022-09-28T14:16:31.118Z,61.60
2022-09-28T14:19:08.042Z,62.26
2022-09-28T14:22:07.936Z,62.46
2022-09-28T14:24:59.345Z,61.87
2022-09-28T14:28:04.947Z,62.24
2022-09-28T14:30:51.448Z,63.25
2022-09-28T14:33:29.143Z,63.49
2022-09-28T14:36:04.659Z,63.53
2022-09-28T14:39:03.263Z,63.35
2022-09-28T14:41:37.678Z,63.67
2022-09-28T14:44:12.156Z,64.01
2022-09-28T14:47:11.377Z,64.44
2022-09-28T14:50:02.605Z,65.02
2022-09-28T14:52:47.664Z,65.29
2022-09-28T14:55:25.691Z,65.48
2022-09-28T14:58:05.617Z,65.45
2022-09-28T15:00:39.393Z,65.92
2022-09-28T15:03:14.346Z,66.69
2022-09-28T15:05:48.225Z,67.27
2022-09-28T15:08:22.526Z,67.43
2022-09-28T15:10:54.233Z,67.64
2022-09-28T15:13:28.201Z,67.68
2022-09-28T15:16:05.422Z,67.81
2022-09-28T15:19:01.524Z,67.90
2022-09-28T15:21:42.028Z,67.80
2022-09-28T15:24:33.667Z,67.88
2022-09-28T15:27:15.756Z,67.92
2022-09-28T15:29:58.919Z,67.46
2022-09-28T15:32:32.236Z,67.83
2022-09-28T15:35:20.552Z,68.07
2022-09-28T15:37:52.922Z,68.19
2022-09-28T15:40:33.162Z,67.71
2022-09-28T15:43:13.436Z,68.06
2022-09-28T15:45:52.637Z,68.13
2022-09-28T15:48:32.404Z,68.21
2022-09-28T15:51:10.812Z,68.53
2022-09-28T15:53:56.056Z,69.04
2022-09-28T15:56:28.422Z,69.33
2022-09-28T15:59:27.474Z,69.44
2022-09-28T16:02:16.061Z,69.74
2022-09-28T16:04:51.739Z,69.60
2022-09-28T16:07:28.602Z,69.47
2022-09-28T16:10:03.313Z,69.69
2022-09-28T16:12:46.137Z,69.69
2022-09-28T16:15:21.784Z,70.51
2022-09-28T16:17:55.965Z,70.86
2022-09-28T16:20:32.037Z,71.02
2022-09-28T16:23:18.389Z,71.83
2022-09-28T16:25:53.902Z,72.22
2022-09-28T16:28:48.989Z,72.47
2022-09-28T16:31:29.693Z,73.08
2022-09-28T16:34:11.670Z,73.09
2022-09-28T16:36:45.561Z,73.60
2022-09-28T16:39:18.217Z,73.68
2022-09-28T16:41:53.744Z,73.91
2022-09-28T16:44:28.439Z,73.97
2022-09-28T16:47:01.187Z,74.14
2022-09-28T16:49:33.927Z,74.48
2022-09-28T16:52:10.178Z,74.14
2022-09-28T16:54:59.044Z,74.27
2022-09-28T16:57:30.567Z,74.68
2022-09-28T17:00:01.423Z,75.00
2022-09-28T17:02:46.256Z,75.15
2022-09-28T17:05:19.358Z,74.97
2022-09-28T17:07:56.607Z,74.99
2022-09-28T17:10:45.040Z,75.44
2022-09-28T17:13:31.384Z,75.90
2022-09-28T17:16:06.254Z,76.02
2022-09-28T17:18:39.030Z,76.06
2022-09-28T17:21:15.783Z,76.06
2022-09-28T17:23:49.248Z,76.07
2022-09-28T17:26:27.275Z,76.03
2022-09-28T17:28:59.358Z,76.48
2022-09-28T17:31:31.358Z,76.71
2022-09-28T17:34:03.028Z,76.74
2022-09-28T17:36:35.202Z,77.04
2022-09-28T17:39:07.457Z,77.01
2022-09-28T17:41:40.197Z,77.05
2022-09-28T17:44:15.180Z,77.18
2022-09-28T17:46:49.429Z,77.08
2022-09-28T17:49:21.136Z,77.09
2022-09-28T17:51:52.912Z,76.97
2022-09-28T17:54:25.966Z,77.23
2022-09-28T17:56:58.274Z,77.21
2022-09-28T17:59:29.875Z,77.20
2022-09-28T18:02:02.583Z,77.33
2022-09-28T18:04:51.191Z,77.11
2022-09-28T18:07:23.532Z,77.19
2022-09-28T18:09:58.306Z,77.23
2022-09-28T18:12:30.148Z,77.19
2022-09-28T18:15:01.969Z,77.16
2022-09-28T18:17:34.063Z,77.22
2022-09-28T18:20:06.762Z,77.28
2022-09-28T18:22:39.123Z,77.32
2022-09-28T18:25:12.962Z,77.37
2022-09-28T18:27:44.740Z,77.56
2022-09-28T18:30:16.557Z,77.62
2022-09-28T18:32:48.419Z,77.60
2022-09-28T18:35:23.123Z,77.89
2022-09-28T18:37:55.303Z,77.77
2022-09-28T18:40:27.964Z,77.81
2022-09-28T18:42:59.943Z,77.85
2022-09-28T18:45:31.813Z,77.71
2022-09-28T18:48:03.739Z,77.91
2022-09-28T18:50:35.687Z,77.72
2022-09-28T18:53:13.484Z,77.76
2022-09-28T18:55:45.765Z,77.90
2022-09-28T18:58:17.702Z,77.79
2022-09-28T19:00:49.613Z,77.54
2022-09-28T19:03:21.484Z,77.31
2022-09-28T19:05:53.445Z,77.30
2022-09-28T19:08:27.686Z,77.53
2022-09-28T19:11:08.293Z,77.72
2022-09-28T19:13:40.443Z,77.91
2022-09-28T19:16:14.105Z,78.22
2022-09-28T19:18:45.748Z,78.47
2022-09-28T19:21:17.866Z,78.63
2022-09-28T19:23:50.161Z,78.62
2022-09-28T19:26:23.492Z,78.82
2022-09-28T19:28:56.155Z,78.72
2022-09-28T19:31:28.347Z,79.04
2022-09-28T19:34:00.262Z,79.11
2022-09-28T19:36:32.557Z,79.12
2022-09-28T19:39:04.226Z,78.95
2022-09-28T19:41:44.448Z,78.92
2022-09-28T19:44:25.087Z,79.10
2022-09-28T19:46:59.868Z,79.11
2022-09-28T19:49:33.189Z,79.05
2022-09-28T19:52:13.402Z,78.62
2022-09-28T19:54:55.730Z,78.88
2022-09-28T19:57:28.743Z,79.28
2022-09-28T20:00:03.120Z,79.50
2022-09-28T20:02:39.327Z,79.66
2022-09-28T20:05:09.648Z,79.75
2022-09-28T20:07:41.114Z,79.56
2022-09-28T20:10:11.975Z,79.45
2022-09-28T20:12:43.404Z,79.68
2022-09-28T20:15:13.426Z,79.52
2022-09-28T20:17:44.903Z,79.90
2022-09-28T20:20:15.001Z,79.85
2022-09-28T20:22:46.503Z,80.23
2022-09-28T20:25:43.943Z,80.35
2022-09-28T20:28:31.401Z,80.16
2022-09-28T20:31:21.556Z,79.84
2022-09-28T20:33:53.526Z,79.86
2022-09-28T20:36:26.355Z,79.88
2022-09-28T20:38:58.375Z,80.30
2022-09-28T20:41:35.484Z,80.12
2022-09-28T20:44:07.927Z,79.81
2022-09-28T20:46:39.758Z,79.75
2022-09-28T20:49:11.321Z,79.87
2022-09-28T20:51:41.677Z,79.91
2022-09-28T20:54:13.206Z,79.84
2022-09-28T20:56:43.188Z,79.94
2022-09-28T20:59:15.049Z,79.80
2022-09-28T21:01:46.651Z,79.43
2022-09-28T21:04:18.112Z,79.31
2022-09-28T21:06:48.271Z,79.32
2022-09-28T21:09:19.681Z,79.62
2022-09-28T21:11:51.124Z,79.65
2022-09-28T21:14:24.023Z,79.75
2022-09-28T21:16:55.593Z,79.99
2022-09-28T21:19:25.636Z,79.47
2022-09-28T21:21:57.270Z,79.77
2022-09-28T21:24:29.085Z,79.90
2022-09-28T21:27:00.570Z,80.12
2022-09-28T21:29:31.520Z,80.07
2022-09-28T21:32:03.268Z,80.24
2022-09-28T21:34:35.991Z,80.17
2022-09-28T21:37:07.934Z,80.15
2022-09-28T21:39:39.422Z,79.70
2022-09-28T21:42:09.454Z,79.51
2022-09-28T21:44:41.086Z,79.59
2022-09-28T21:47:11.155Z,79.82
2022-09-28T21:49:42.654Z,79.93
2022-09-28T21:52:12.797Z,80.02
2022-09-28T21:54:44.735Z,80.09
2022-09-28T21:57:16.562Z,80.02
2022-09-28T21:59:48.287Z,80.13
2022-09-28T22:02:21.997Z,80.11
2022-09-28T22:04:53.500Z,80.15
2022-09-28T22:07:25.105Z,80.28
2022-09-28T22:09:56.573Z,80.32
2022-09-28T22:12:26.595Z,80.36
2022-09-28T22:14:58.169Z,80.35
2022-09-28T22:17:28.256Z,80.43
2022-09-28T22:19:59.759Z,80.72
2022-09-28T22:22:29.757Z,80.71
2022-09-28T22:25:01.812Z,80.45
2022-09-28T22:27:33.601Z,80.23
2022-09-28T22:30:05.566Z,79.91
2022-09-28T22:32:37.054Z,79.91
2022-09-28T22:35:09.766Z,80.06
2022-09-28T22:37:41.244Z,79.86
2022-09-28T22:40:12.698Z,79.79
2022-09-28T22:42:44.161Z,80.01
2022-09-28T22:45:14.283Z,80.06
2022-09-28T22:47:45.797Z,79.43
2022-09-28T22:50:16.007Z,79.24
2022-09-28T22:52:48.432Z,79.56
2022-09-28T22:55:19.927Z,79.32
2022-09-28T22:57:49.928Z,79.59
2022-09-28T23:00:22.203Z,79.89
2022-09-28T23:02:53.709Z,80.08
2022-09-28T23:05:23.809Z,79.84
2022-09-28T23:07:55.245Z,79.78
2022-09-28T23:10:26.830Z,79.94
2022-09-28T23:12:59.207Z,80.06
2022-09-28T23:15:30.690Z,80.11
2022-09-28T23:18:00.705Z,80.25
2022-09-28T23:20:32.731Z,80.33
2022-09-28T23:23:04.259Z,80.29
2022-09-28T23:25:34.304Z,80.37
2022-09-28T23:28:05.804Z,80.13
2022-09-28T23:30:36.168Z,80.06
2022-09-28T23:33:07.888Z,80.04
2022-09-28T23:35:39.333Z,80.09
2022-09-28T23:38:11.145Z,79.80
2022-09-28T23:40:42.711Z,80.21
2022-09-28T23:43:14.325Z,80.05
2022-09-28T23:45:46.033Z,80.20
2022-09-28T23:48:17.487Z,79.77
2022-09-28T23:50:48.933Z,79.90
2022-09-28T23:53:18.892Z,79.95
2022-09-28T23:55:50.423Z,79.99
2022-09-28T23:58:20.537Z,80.17
